LYBE/BEG METAR and TAF weather

Enter ICAO airport designator
Station Type Date Time Source
LYBE METAR 2019/03/21 10:00 UTC NOAA

LYBE 211000Z 03005KT 350V080 CAVOK 12/M03 Q1035 NOSIG


Station Type Date Time Source
LYBE Decoded METAR 2019/03/21 10:00 UTC NOAA

Beograd / Surcin, Serbia and Montenegro (LYBE) 44-49N 020-17E 99M
Mar 21, 2019 - 06:00 AM EDT / 2019.03.21 1000 UTC
Wind: from the NNE (030 degrees) at 6 MPH (5 KT) (direction variable):0
Visibility: greater than 7 mile(s):0
Temperature: 53 F (12 C)
Dew Point: 26 F (-3 C)
Relative Humidity: 34%
Pressure (altimeter): 30.56 in. Hg (1035 hPa)
ob: LYBE 211000Z 03005KT 350V080 CAVOK 12/M03 Q1035 NOSIG
cycle: 10

Station Type Date Time Source
LYBE TAF 2019/03/21 06:21 UTC NOAA

TAF LYBE 210500Z 2106/2206 28006KT CAVOK TX14/2113Z TN01/2205Z
TEMPO 2203/2206 3000 BR

Example: see airport list